Terminal Aerodrome Forecast
Issued by NWS

Home | Current Version | Previous Version | Text Only | Print | Product List | Glossary On
Versions: 1 2 3 4 5 6 7 8 9 10 11 12 13 14 15 16 17 18 19 20 21 22 23
000
FTUS43 KAPX 031433 AAB
TAFTVC
TAF AMD
KTVC 031433Z 0315/0412 15008KT 2SM -SN SCT009 OVC018 WS015/22025KT
      TEMPO 0315/0317 1SM -SN
     FM031700 14007KT 3/4SM -SN OVC005 WS015/18027KT
     FM032000 19008KT 2SM -FZDZSN OVC009
     FM032300 24008KT P6SM OVC012
     FM040100 27008KT P6SM BKN028=

USA.gov is the U.S. government's official web portal to all federal, state and local government web resources and services.